Terminal Aerodrome Forecast
Issued by NWS Upton, NY

Home | Current Version | Previous Version | Text Only | Print | Product List | Glossary On
Versions: 1 2 3 4 5 6 7 8 9 10 11 12 13 14 15 16 17 18 19 20 21 22 23 24 25
000
FTUS41 KOKX 050233 AAA
TAFBDR
TAF AMD
KBDR 050233Z 0503/0524 23007KT P6SM FEW250 WS010/23040KT
     FM050500 25008KT P6SM FEW120
     FM051500 22006KT P6SM VCSH BKN070
     FM051900 15005KT P6SM VCSH BKN050=

USA.gov is the U.S. government's official web portal to all federal, state and local government web resources and services.